weather.gov     
National Weather Service

Other Surface Observations
NWS Homepage
This page is being discontinued on March 12, 2014.
The same data is available at this site. Please update your bookmarks.
Thank you, and we apologize for the inconvenience.
Please send an email to SR-SRH.Webmaster@noaa.gov with any concerns.


Current Version
Previous Version:    01  02  03  04  05  06  07  08  09  10  11  12  13  14  15  16  17  18  19  20  21  22  23  24  25  26  27  28  29  30  
   31  32  33  34  35  36  37  38  39  40  41  42  43  44  45  46  47  48  49  50  51  52  53  54  55  56  57  58  59  60  
[Printable]
956
SXUS55 KMSO 211504
OSOMSO
MONTANA AWOS SUMMARY
NATIONAL WEATHER SERVICE MISSOULA MT
903 AM MDT TUE OCT 21 2014

Montana AWOS Reports

LAUREL      |K6S8 211455Z AUTO 20004KT 40SM 13/M02 A2975 RMK AO1 T01281021
ROUNDUP     |KRPX 211455Z AUTO 20008KT 40SM 06/M01 A2966 RMK AO1 T00561010
SCOBEY      |K9S2 211455Z AUTO 00000KT 40SM 03/01 A2970 RMK AO1 T00330006
MALTA       |KM75 211355Z AUTO 00000KT 40SM 04/02 A2964 RMK AO1 T00390017
PLAINS      |KS34 211455Z AUTO 00000KT 5SM 09/07 A2987 RMK AO1 T00890067





U.S. Dept. of Commerce
NOAA National Weather Service
1325 East West Highway
Silver Spring, MD 20910
E-mail: w-nws.webmaster@noaa.gov
Page last modified: May 16, 2007
NATIONAL WEATHER SERVICE: for Safety, for Work, for Fun - FOR LIFE